X  Sluiten METAR luchtvaart weer gegevens      EHAM Amsterdam Airport Schiphol
Temperatuur
19°C Temperatuur
14°C Dauwpunt
73% Vochtigheid



Wind
13 KM/U
8 MPH
4 M/S
7 KTS



50°
NO
Huidig weer

Wat bewolking Wat bewolking
Luchtdruk 1019.98 (hPa) - 30.12 (inHg)
Zicht 6 (mijl) - 9.7 (km)
Vliegveld
Vliegveld code EHAM

Locatie : Amsterdam Airport Schiphol
Afstand: 26 (km)

Metar:
EHAM 201225Z 05007KT 350V110 9999 FEW032 19/14 Q1020 NOSIG

Tijd: 20-06-2024 14:25 CEST